sensor_id;sensor_type;location;lat;lon;timestamp;temperature;humidity
70421;SHT31;57848;51.938;15.520;2023-07-02T00:01:03;18.64;82.44
70421;SHT31;57848;51.938;15.520;2023-07-02T00:03:29;18.64;82.98
70421;SHT31;57848;51.938;15.520;2023-07-02T00:05:54;18.55;83.02
70421;SHT31;57848;51.938;15.520;2023-07-02T00:08:22;18.62;83.39
70421;SHT31;57848;51.938;15.520;2023-07-02T00:10:48;18.54;84.33
70421;SHT31;57848;51.938;15.520;2023-07-02T00:13:14;18.47;84.42
70421;SHT31;57848;51.938;15.520;2023-07-02T00:15:40;18.49;84.61
70421;SHT31;57848;51.938;15.520;2023-07-02T00:18:05;18.43;84.61
70421;SHT31;57848;51.938;15.520;2023-07-02T00:20:31;18.30;84.62
70421;SHT31;57848;51.938;15.520;2023-07-02T00:23:00;18.38;84.54
70421;SHT31;57848;51.938;15.520;2023-07-02T00:25:25;18.37;84.18
70421;SHT31;57848;51.938;15.520;2023-07-02T00:27:51;18.40;84.04
70421;SHT31;57848;51.938;15.520;2023-07-02T00:30:17;18.27;84.27
70421;SHT31;57848;51.938;15.520;2023-07-02T00:32:42;18.41;83.97
70421;SHT31;57848;51.938;15.520;2023-07-02T00:35:08;18.41;84.18
70421;SHT31;57848;51.938;15.520;2023-07-02T00:37:34;18.49;83.64
70421;SHT31;57848;51.938;15.520;2023-07-02T00:39:59;18.45;83.60
70421;SHT31;57848;51.938;15.520;2023-07-02T00:42:25;18.43;83.74
70421;SHT31;57848;51.938;15.520;2023-07-02T00:44:54;18.35;83.91
70421;SHT31;57848;51.938;15.520;2023-07-02T00:47:23;18.31;84.09
70421;SHT31;57848;51.938;15.520;2023-07-02T00:49:49;18.45;83.89
70421;SHT31;57848;51.938;15.520;2023-07-02T00:52:15;18.52;83.54
70421;SHT31;57848;51.938;15.520;2023-07-02T00:54:40;18.43;83.34
70421;SHT31;57848;51.938;15.520;2023-07-02T00:57:06;18.38;83.49
70421;SHT31;57848;51.938;15.520;2023-07-02T00:59:33;18.45;83.46
70421;SHT31;57848;51.938;15.520;2023-07-02T01:02:02;18.54;83.14
70421;SHT31;57848;51.938;15.520;2023-07-02T01:04:27;18.45;83.23
70421;SHT31;57848;51.938;15.520;2023-07-02T01:06:53;18.43;83.39
70421;SHT31;57848;51.938;15.520;2023-07-02T01:09:23;18.37;83.42
70421;SHT31;57848;51.938;15.520;2023-07-02T01:12:00;18.40;83.61
70421;SHT31;57848;51.938;15.520;2023-07-02T01:14:34;18.51;83.16
70421;SHT31;57848;51.938;15.520;2023-07-02T01:17:02;18.43;83.24
70421;SHT31;57848;51.938;15.520;2023-07-02T01:22:10;18.49;83.15
70421;SHT31;57848;51.938;15.520;2023-07-02T01:24:36;18.61;82.92
70421;SHT31;57848;51.938;15.520;2023-07-02T01:27:04;18.49;83.04
70421;SHT31;57848;51.938;15.520;2023-07-02T01:29:30;18.59;82.95
70421;SHT31;57848;51.938;15.520;2023-07-02T01:31:55;18.52;83.12
70421;SHT31;57848;51.938;15.520;2023-07-02T01:34:21;18.51;82.99
70421;SHT31;57848;51.938;15.520;2023-07-02T01:36:47;18.52;83.20
70421;SHT31;57848;51.938;15.520;2023-07-02T01:39:12;18.54;83.14
70421;SHT31;57848;51.938;15.520;2023-07-02T01:41:51;18.52;83.19
70421;SHT31;57848;51.938;15.520;2023-07-02T01:44:17;18.49;83.38
70421;SHT31;57848;51.938;15.520;2023-07-02T01:46:43;18.59;83.19
70421;SHT31;57848;51.938;15.520;2023-07-02T01:49:09;18.59;83.06
70421;SHT31;57848;51.938;15.520;2023-07-02T01:51:35;18.58;83.15
70421;SHT31;57848;51.938;15.520;2023-07-02T01:54:01;18.58;83.17
70421;SHT31;57848;51.938;15.520;2023-07-02T01:56:27;18.54;83.22
70421;SHT31;57848;51.938;15.520;2023-07-02T01:58:53;18.49;83.53
70421;SHT31;57848;51.938;15.520;2023-07-02T02:01:18;18.52;83.38
70421;SHT31;57848;51.938;15.520;2023-07-02T02:03:44;18.55;83.26
70421;SHT31;57848;51.938;15.520;2023-07-02T02:06:09;18.57;83.39
70421;SHT31;57848;51.938;15.520;2023-07-02T02:08:34;18.54;83.38
70421;SHT31;57848;51.938;15.520;2023-07-02T02:11:00;18.49;83.66
70421;SHT31;57848;51.938;15.520;2023-07-02T02:13:26;18.51;83.44
70421;SHT31;57848;51.938;15.520;2023-07-02T02:15:51;18.49;83.64
70421;SHT31;57848;51.938;15.520;2023-07-02T02:18:17;18.41;83.52
70421;SHT31;57848;51.938;15.520;2023-07-02T02:20:42;18.44;83.85
70421;SHT31;57848;51.938;15.520;2023-07-02T02:23:08;18.33;83.99
70421;SHT31;57848;51.938;15.520;2023-07-02T02:25:33;18.45;84.00
70421;SHT31;57848;51.938;15.520;2023-07-02T02:28:01;18.37;84.01
70421;SHT31;57848;51.938;15.520;2023-07-02T02:30:26;18.34;84.03
70421;SHT31;57848;51.938;15.520;2023-07-02T02:32:52;18.40;83.92
70421;SHT31;57848;51.938;15.520;2023-07-02T02:35:18;18.37;84.15
70421;SHT31;57848;51.938;15.520;2023-07-02T02:37:43;18.31;84.19
70421;SHT31;57848;51.938;15.520;2023-07-02T02:40:10;18.40;83.96
70421;SHT31;57848;51.938;15.520;2023-07-02T02:42:36;18.37;84.06
70421;SHT31;57848;51.938;15.520;2023-07-02T02:45:04;18.31;84.34
70421;SHT31;57848;51.938;15.520;2023-07-02T02:47:29;18.34;84.39
70421;SHT31;57848;51.938;15.520;2023-07-02T02:49:55;18.30;84.35
70421;SHT31;57848;51.938;15.520;2023-07-02T02:52:20;18.26;84.63
70421;SHT31;57848;51.938;15.520;2023-07-02T02:54:46;18.18;84.82
70421;SHT31;57848;51.938;15.520;2023-07-02T02:57:11;18.24;84.74
70421;SHT31;57848;51.938;15.520;2023-07-02T02:59:36;18.31;84.31
70421;SHT31;57848;51.938;15.520;2023-07-02T03:02:02;18.21;84.53
70421;SHT31;57848;51.938;15.520;2023-07-02T03:04:28;18.14;84.86
70421;SHT31;57848;51.938;15.520;2023-07-02T03:06:53;18.21;84.61
70421;SHT31;57848;51.938;15.520;2023-07-02T03:09:19;18.18;84.68
70421;SHT31;57848;51.938;15.520;2023-07-02T03:11:46;18.17;84.55
70421;SHT31;57848;51.938;15.520;2023-07-02T03:14:11;18.16;84.78
70421;SHT31;57848;51.938;15.520;2023-07-02T03:16:37;18.21;84.59
70421;SHT31;57848;51.938;15.520;2023-07-02T03:19:02;18.20;84.43
70421;SHT31;57848;51.938;15.520;2023-07-02T03:21:28;18.30;84.24
70421;SHT31;57848;51.938;15.520;2023-07-02T03:23:55;18.23;84.35
70421;SHT31;57848;51.938;15.520;2023-07-02T03:26:20;18.28;84.11
70421;SHT31;57848;51.938;15.520;2023-07-02T03:28:46;18.30;84.12
70421;SHT31;57848;51.938;15.520;2023-07-02T03:31:11;18.33;84.29
70421;SHT31;57848;51.938;15.520;2023-07-02T03:33:37;18.35;83.93
70421;SHT31;57848;51.938;15.520;2023-07-02T03:36:02;18.27;84.01
70421;SHT31;57848;51.938;15.520;2023-07-02T03:38:28;18.23;84.17
70421;SHT31;57848;51.938;15.520;2023-07-02T03:40:53;18.31;84.06
70421;SHT31;57848;51.938;15.520;2023-07-02T03:43:19;18.30;83.98
70421;SHT31;57848;51.938;15.520;2023-07-02T03:45:44;18.24;84.03
70421;SHT31;57848;51.938;15.520;2023-07-02T03:48:09;18.26;84.08
70421;SHT31;57848;51.938;15.520;2023-07-02T03:50:35;18.26;83.93
70421;SHT31;57848;51.938;15.520;2023-07-02T03:53:00;18.23;84.04
70421;SHT31;57848;51.938;15.520;2023-07-02T03:55:25;18.21;83.94
70421;SHT31;57848;51.938;15.520;2023-07-02T03:57:51;18.28;83.66
70421;SHT31;57848;51.938;15.520;2023-07-02T04:00:16;18.30;83.65
70421;SHT31;57848;51.938;15.520;2023-07-02T04:02:41;18.33;83.84
70421;SHT31;57848;51.938;15.520;2023-07-02T04:05:07;18.33;83.59
70421;SHT31;57848;51.938;15.520;2023-07-02T04:07:32;18.40;83.27
70421;SHT31;57848;51.938;15.520;2023-07-02T04:09:57;18.37;83.53
70421;SHT31;57848;51.938;15.520;2023-07-02T04:12:23;18.34;83.34
70421;SHT31;57848;51.938;15.520;2023-07-02T04:14:48;18.37;83.30
70421;SHT31;57848;51.938;15.520;2023-07-02T04:17:13;18.43;82.99
70421;SHT31;57848;51.938;15.520;2023-07-02T04:19:39;18.49;83.05
70421;SHT31;57848;51.938;15.520;2023-07-02T04:22:04;18.48;82.57
70421;SHT31;57848;51.938;15.520;2023-07-02T04:24:30;18.49;82.62
70421;SHT31;57848;51.938;15.520;2023-07-02T04:26:55;18.41;82.81
70421;SHT31;57848;51.938;15.520;2023-07-02T04:29:20;18.40;82.92
70421;SHT31;57848;51.938;15.520;2023-07-02T04:31:46;18.40;83.05
70421;SHT31;57848;51.938;15.520;2023-07-02T04:34:11;18.51;82.21
70421;SHT31;57848;51.938;15.520;2023-07-02T04:36:36;18.47;82.21
70421;SHT31;57848;51.938;15.520;2023-07-02T04:39:02;18.48;81.96
70421;SHT31;57848;51.938;15.520;2023-07-02T04:41:27;18.44;82.12
70421;SHT31;57848;51.938;15.520;2023-07-02T04:43:54;18.35;82.58
70421;SHT31;57848;51.938;15.520;2023-07-02T04:46:20;18.47;82.43
70421;SHT31;57848;51.938;15.520;2023-07-02T04:48:45;18.43;82.38
70421;SHT31;57848;51.938;15.520;2023-07-02T04:51:10;18.35;82.62
70421;SHT31;57848;51.938;15.520;2023-07-02T04:53:36;18.44;82.59
70421;SHT31;57848;51.938;15.520;2023-07-02T04:56:03;18.45;82.40
70421;SHT31;57848;51.938;15.520;2023-07-02T04:58:28;18.38;82.19
70421;SHT31;57848;51.938;15.520;2023-07-02T05:00:53;18.45;81.56
70421;SHT31;57848;51.938;15.520;2023-07-02T05:03:19;18.44;82.02
70421;SHT31;57848;51.938;15.520;2023-07-02T05:05:44;18.24;81.86
70421;SHT31;57848;51.938;15.520;2023-07-02T05:08:10;18.38;82.09
70421;SHT31;57848;51.938;15.520;2023-07-02T05:10:35;18.44;81.53
70421;SHT31;57848;51.938;15.520;2023-07-02T05:13:01;18.44;81.71
70421;SHT31;57848;51.938;15.520;2023-07-02T05:15:26;18.51;81.50
70421;SHT31;57848;51.938;15.520;2023-07-02T05:17:51;18.58;80.63
70421;SHT31;57848;51.938;15.520;2023-07-02T05:20:17;18.59;80.62
70421;SHT31;57848;51.938;15.520;2023-07-02T05:22:42;18.65;80.32
70421;SHT31;57848;51.938;15.520;2023-07-02T05:25:08;18.69;80.08
70421;SHT31;57848;51.938;15.520;2023-07-02T05:27:33;18.66;80.50
70421;SHT31;57848;51.938;15.520;2023-07-02T05:29:59;18.64;80.54
70421;SHT31;57848;51.938;15.520;2023-07-02T05:32:24;18.64;80.63
70421;SHT31;57848;51.938;15.520;2023-07-02T05:34:49;18.62;80.85
70421;SHT31;57848;51.938;15.520;2023-07-02T05:37:15;18.68;80.73
70421;SHT31;57848;51.938;15.520;2023-07-02T05:39:40;18.73;80.69
70421;SHT31;57848;51.938;15.520;2023-07-02T05:42:05;18.66;80.79
70421;SHT31;57848;51.938;15.520;2023-07-02T05:44:31;18.71;80.68
70421;SHT31;57848;51.938;15.520;2023-07-02T05:46:56;18.64;80.94
70421;SHT31;57848;51.938;15.520;2023-07-02T05:49:21;18.59;80.69
70421;SHT31;57848;51.938;15.520;2023-07-02T05:51:47;18.68;80.22
70421;SHT31;57848;51.938;15.520;2023-07-02T05:54:12;18.72;80.06
70421;SHT31;57848;51.938;15.520;2023-07-02T05:56:38;18.71;79.89
70421;SHT31;57848;51.938;15.520;2023-07-02T05:59:03;18.79;79.71
70421;SHT31;57848;51.938;15.520;2023-07-02T06:01:28;18.76;79.95
70421;SHT31;57848;51.938;15.520;2023-07-02T06:03:54;18.73;79.85
70421;SHT31;57848;51.938;15.520;2023-07-02T06:06:21;18.82;79.48
70421;SHT31;57848;51.938;15.520;2023-07-02T06:08:47;18.99;79.27
70421;SHT31;57848;51.938;15.520;2023-07-02T06:11:13;19.07;79.07
70421;SHT31;57848;51.938;15.520;2023-07-02T06:13:38;19.17;78.67
70421;SHT31;57848;51.938;15.520;2023-07-02T06:16:03;19.34;77.72
70421;SHT31;57848;51.938;15.520;2023-07-02T06:18:29;19.34;77.95
70421;SHT31;57848;51.938;15.520;2023-07-02T06:20:54;19.36;77.73
70421;SHT31;57848;51.938;15.520;2023-07-02T06:23:19;19.37;76.67
70421;SHT31;57848;51.938;15.520;2023-07-02T06:25:45;19.41;76.28
70421;SHT31;57848;51.938;15.520;2023-07-02T06:28:10;19.46;76.12
70421;SHT31;57848;51.938;15.520;2023-07-02T06:30:35;19.47;76.40
70421;SHT31;57848;51.938;15.520;2023-07-02T06:33:01;19.53;75.28
70421;SHT31;57848;51.938;15.520;2023-07-02T06:35:27;19.50;75.65
70421;SHT31;57848;51.938;15.520;2023-07-02T06:37:52;19.54;75.27
70421;SHT31;57848;51.938;15.520;2023-07-02T06:40:17;19.58;74.87
70421;SHT31;57848;51.938;15.520;2023-07-02T06:42:43;19.67;74.25
70421;SHT31;57848;51.938;15.520;2023-07-02T06:45:08;19.71;74.74
70421;SHT31;57848;51.938;15.520;2023-07-02T06:47:33;19.73;74.42
70421;SHT31;57848;51.938;15.520;2023-07-02T06:49:59;19.50;74.44
70421;SHT31;57848;51.938;15.520;2023-07-02T06:52:25;19.63;74.93
70421;SHT31;57848;51.938;15.520;2023-07-02T06:54:50;19.63;74.42
70421;SHT31;57848;51.938;15.520;2023-07-02T06:57:15;19.61;74.21
70421;SHT31;57848;51.938;15.520;2023-07-02T06:59:41;19.70;73.74
70421;SHT31;57848;51.938;15.520;2023-07-02T07:02:06;19.73;72.76
70421;SHT31;57848;51.938;15.520;2023-07-02T07:04:32;19.68;72.90
70421;SHT31;57848;51.938;15.520;2023-07-02T07:06:59;19.86;73.41
70421;SHT31;57848;51.938;15.520;2023-07-02T07:09:25;19.99;71.80
70421;SHT31;57848;51.938;15.520;2023-07-02T07:11:50;19.95;71.24
70421;SHT31;57848;51.938;15.520;2023-07-02T07:14:16;19.88;70.63
70421;SHT31;57848;51.938;15.520;2023-07-02T07:16:41;19.92;71.16
70421;SHT31;57848;51.938;15.520;2023-07-02T07:19:06;19.98;70.29
70421;SHT31;57848;51.938;15.520;2023-07-02T07:21:34;20.01;69.84
70421;SHT31;57848;51.938;15.520;2023-07-02T07:23:59;19.98;70.00
70421;SHT31;57848;51.938;15.520;2023-07-02T07:26:24;19.96;70.36
70421;SHT31;57848;51.938;15.520;2023-07-02T07:28:50;20.15;70.78
70421;SHT31;57848;51.938;15.520;2023-07-02T07:31:15;20.15;68.75
70421;SHT31;57848;51.938;15.520;2023-07-02T07:33:40;19.91;67.64
70421;SHT31;57848;51.938;15.520;2023-07-02T07:36:06;20.02;68.50
70421;SHT31;57848;51.938;15.520;2023-07-02T07:38:31;20.22;67.08
70421;SHT31;57848;51.938;15.520;2023-07-02T07:40:56;20.15;67.52
70421;SHT31;57848;51.938;15.520;2023-07-02T07:43:22;20.12;67.78
70421;SHT31;57848;51.938;15.520;2023-07-02T07:45:47;20.28;67.00
70421;SHT31;57848;51.938;15.520;2023-07-02T07:48:12;20.37;67.22
70421;SHT31;57848;51.938;15.520;2023-07-02T07:50:38;20.45;66.70
70421;SHT31;57848;51.938;15.520;2023-07-02T07:53:03;20.50;65.15
70421;SHT31;57848;51.938;15.520;2023-07-02T07:55:28;20.35;64.28
70421;SHT31;57848;51.938;15.520;2023-07-02T07:57:54;20.40;64.63
70421;SHT31;57848;51.938;15.520;2023-07-02T08:00:19;20.30;65.19
70421;SHT31;57848;51.938;15.520;2023-07-02T08:02:45;20.35;65.13
70421;SHT31;57848;51.938;15.520;2023-07-02T08:05:12;20.42;62.70
70421;SHT31;57848;51.938;15.520;2023-07-02T08:07:38;20.49;62.25
70421;SHT31;57848;51.938;15.520;2023-07-02T08:10:04;20.60;62.73
70421;SHT31;57848;51.938;15.520;2023-07-02T08:12:30;20.81;62.17
70421;SHT31;57848;51.938;15.520;2023-07-02T08:14:56;20.98;61.84
70421;SHT31;57848;51.938;15.520;2023-07-02T08:17:21;20.98;61.14
70421;SHT31;57848;51.938;15.520;2023-07-02T08:19:47;21.01;60.62
70421;SHT31;57848;51.938;15.520;2023-07-02T08:22:13;21.20;60.35
70421;SHT31;57848;51.938;15.520;2023-07-02T08:24:38;21.21;60.07
70421;SHT31;57848;51.938;15.520;2023-07-02T08:27:04;21.17;59.88
70421;SHT31;57848;51.938;15.520;2023-07-02T08:29:30;20.98;60.95
70421;SHT31;57848;51.938;15.520;2023-07-02T08:31:56;21.18;61.08
70421;SHT31;57848;51.938;15.520;2023-07-02T08:34:21;21.25;61.17
70421;SHT31;57848;51.938;15.520;2023-07-02T08:36:47;21.17;60.80
70421;SHT31;57848;51.938;15.520;2023-07-02T08:39:12;21.18;59.99
70421;SHT31;57848;51.938;15.520;2023-07-02T08:41:47;21.03;60.91
70421;SHT31;57848;51.938;15.520;2023-07-02T08:44:14;20.97;61.70
70421;SHT31;57848;51.938;15.520;2023-07-02T08:46:41;20.86;62.48
70421;SHT31;57848;51.938;15.520;2023-07-02T08:49:10;20.88;61.65
70421;SHT31;57848;51.938;15.520;2023-07-02T08:51:35;21.03;58.71
70421;SHT31;57848;51.938;15.520;2023-07-02T08:54:01;21.10;58.75
70421;SHT31;57848;51.938;15.520;2023-07-02T08:56:28;21.32;57.36
70421;SHT31;57848;51.938;15.520;2023-07-02T08:58:53;21.44;57.12
70421;SHT31;57848;51.938;15.520;2023-07-02T09:01:19;21.62;57.24
70421;SHT31;57848;51.938;15.520;2023-07-02T09:03:44;21.66;56.77
70421;SHT31;57848;51.938;15.520;2023-07-02T09:06:10;21.75;56.24
70421;SHT31;57848;51.938;15.520;2023-07-02T09:08:37;21.72;56.38
70421;SHT31;57848;51.938;15.520;2023-07-02T09:11:12;21.62;56.71
70421;SHT31;57848;51.938;15.520;2023-07-02T09:13:42;21.49;57.43
70421;SHT31;57848;51.938;15.520;2023-07-02T09:16:09;21.41;58.13
70421;SHT31;57848;51.938;15.520;2023-07-02T09:18:34;21.41;58.33
70421;SHT31;57848;51.938;15.520;2023-07-02T09:20:59;21.34;56.94
70421;SHT31;57848;51.938;15.520;2023-07-02T09:23:35;21.44;56.22
70421;SHT31;57848;51.938;15.520;2023-07-02T09:26:02;21.56;55.80
70421;SHT31;57848;51.938;15.520;2023-07-02T09:28:28;21.41;56.46
70421;SHT31;57848;51.938;15.520;2023-07-02T09:30:55;21.71;55.82
70421;SHT31;57848;51.938;15.520;2023-07-02T09:33:23;21.90;55.19
70421;SHT31;57848;51.938;15.520;2023-07-02T09:35:48;22.17;55.24
70421;SHT31;57848;51.938;15.520;2023-07-02T09:38:16;22.41;53.80
70421;SHT31;57848;51.938;15.520;2023-07-02T09:40:45;22.62;52.80
70421;SHT31;57848;51.938;15.520;2023-07-02T09:43:12;22.68;52.81
70421;SHT31;57848;51.938;15.520;2023-07-02T09:45:42;22.60;53.03
70421;SHT31;57848;51.938;15.520;2023-07-02T09:48:07;22.55;50.54
70421;SHT31;57848;51.938;15.520;2023-07-02T09:50:33;22.31;51.25
70421;SHT31;57848;51.938;15.520;2023-07-02T09:53:00;22.36;51.92
70421;SHT31;57848;51.938;15.520;2023-07-02T09:55:26;22.71;52.09
70421;SHT31;57848;51.938;15.520;2023-07-02T09:57:51;22.79;51.84
70421;SHT31;57848;51.938;15.520;2023-07-02T10:00:16;23.06;50.55
70421;SHT31;57848;51.938;15.520;2023-07-02T10:02:48;23.30;49.65
70421;SHT31;57848;51.938;15.520;2023-07-02T10:05:25;23.43;48.52
70421;SHT31;57848;51.938;15.520;2023-07-02T10:07:50;23.57;48.87
70421;SHT31;57848;51.938;15.520;2023-07-02T10:10:26;23.51;47.88
70421;SHT31;57848;51.938;15.520;2023-07-02T10:12:52;23.64;47.56
70421;SHT31;57848;51.938;15.520;2023-07-02T10:15:28;23.19;48.11
70421;SHT31;57848;51.938;15.520;2023-07-02T10:17:56;23.39;48.11
70421;SHT31;57848;51.938;15.520;2023-07-02T10:20:40;23.66;47.12
70421;SHT31;57848;51.938;15.520;2023-07-02T10:23:07;24.11;47.41
70421;SHT31;57848;51.938;15.520;2023-07-02T10:25:34;23.93;46.55
70421;SHT31;57848;51.938;15.520;2023-07-02T10:28:17;23.71;47.21
70421;SHT31;57848;51.938;15.520;2023-07-02T10:30:43;23.51;47.10
70421;SHT31;57848;51.938;15.520;2023-07-02T10:33:10;23.49;46.92
70421;SHT31;57848;51.938;15.520;2023-07-02T10:35:36;23.66;47.03
70421;SHT31;57848;51.938;15.520;2023-07-02T10:38:01;23.69;46.93
70421;SHT31;57848;51.938;15.520;2023-07-02T10:40:27;23.82;46.80
70421;SHT31;57848;51.938;15.520;2023-07-02T10:42:52;23.49;46.96
70421;SHT31;57848;51.938;15.520;2023-07-02T10:45:19;23.11;47.86
70421;SHT31;57848;51.938;15.520;2023-07-02T10:47:45;22.76;48.87
70421;SHT31;57848;51.938;15.520;2023-07-02T10:50:18;22.30;50.24
70421;SHT31;57848;51.938;15.520;2023-07-02T10:52:44;22.20;50.12
70421;SHT31;57848;51.938;15.520;2023-07-02T10:55:09;22.27;50.77
70421;SHT31;57848;51.938;15.520;2023-07-02T10:57:35;22.39;50.39
70421;SHT31;57848;51.938;15.520;2023-07-02T11:00:07;22.61;49.32
70421;SHT31;57848;51.938;15.520;2023-07-02T11:02:37;22.96;48.87
70421;SHT31;57848;51.938;15.520;2023-07-02T11:05:04;23.24;48.93
70421;SHT31;57848;51.938;15.520;2023-07-02T11:07:31;23.46;48.03
70421;SHT31;57848;51.938;15.520;2023-07-02T11:09:57;23.63;48.10
70421;SHT31;57848;51.938;15.520;2023-07-02T11:12:29;23.98;47.80
70421;SHT31;57848;51.938;15.520;2023-07-02T11:15:06;23.90;47.17
70421;SHT31;57848;51.938;15.520;2023-07-02T11:17:32;23.75;47.39
70421;SHT31;57848;51.938;15.520;2023-07-02T11:19:57;23.56;47.92
70421;SHT31;57848;51.938;15.520;2023-07-02T11:22:31;23.54;48.45
70421;SHT31;57848;51.938;15.520;2023-07-02T11:24:57;23.34;48.68
70421;SHT31;57848;51.938;15.520;2023-07-02T11:27:33;22.79;49.40
70421;SHT31;57848;51.938;15.520;2023-07-02T11:30:01;22.87;50.03
70421;SHT31;57848;51.938;15.520;2023-07-02T11:32:27;22.76;50.65
70421;SHT31;57848;51.938;15.520;2023-07-02T11:34:55;22.88;50.80
70421;SHT31;57848;51.938;15.520;2023-07-02T11:37:21;23.03;51.24
70421;SHT31;57848;51.938;15.520;2023-07-02T11:39:47;23.08;51.21
70421;SHT31;57848;51.938;15.520;2023-07-02T11:42:12;22.76;51.81
70421;SHT31;57848;51.938;15.520;2023-07-02T11:44:38;22.62;51.64
70421;SHT31;57848;51.938;15.520;2023-07-02T11:47:03;22.57;52.03
70421;SHT31;57848;51.938;15.520;2023-07-02T11:49:29;22.24;52.07
70421;SHT31;57848;51.938;15.520;2023-07-02T11:51:54;22.25;52.99
70421;SHT31;57848;51.938;15.520;2023-07-02T11:54:19;22.18;51.56
70421;SHT31;57848;51.938;15.520;2023-07-02T11:56:45;21.83;52.05
70421;SHT31;57848;51.938;15.520;2023-07-02T11:59:10;21.66;52.77
70421;SHT31;57848;51.938;15.520;2023-07-02T12:01:36;21.25;54.03
70421;SHT31;57848;51.938;15.520;2023-07-02T12:04:02;21.14;54.92
70421;SHT31;57848;51.938;15.520;2023-07-02T12:06:27;21.07;55.66
70421;SHT31;57848;51.938;15.520;2023-07-02T12:08:52;20.87;58.08
70421;SHT31;57848;51.938;15.520;2023-07-02T12:11:18;20.37;61.28
70421;SHT31;57848;51.938;15.520;2023-07-02T12:13:43;20.19;62.31
70421;SHT31;57848;51.938;15.520;2023-07-02T12:16:08;20.05;62.66
70421;SHT31;57848;51.938;15.520;2023-07-02T12:18:34;19.98;62.75
70421;SHT31;57848;51.938;15.520;2023-07-02T12:20:59;19.91;63.10
70421;SHT31;57848;51.938;15.520;2023-07-02T12:23:25;20.04;62.93
70421;SHT31;57848;51.938;15.520;2023-07-02T12:25:50;20.11;62.80
70421;SHT31;57848;51.938;15.520;2023-07-02T12:28:16;20.30;62.10
70421;SHT31;57848;51.938;15.520;2023-07-02T12:30:41;20.43;61.42
70421;SHT31;57848;51.938;15.520;2023-07-02T12:33:06;20.49;60.81
70421;SHT31;57848;51.938;15.520;2023-07-02T12:35:32;20.56;60.55
70421;SHT31;57848;51.938;15.520;2023-07-02T12:37:57;20.74;58.88
70421;SHT31;57848;51.938;15.520;2023-07-02T12:40:22;20.81;57.90
70421;SHT31;57848;51.938;15.520;2023-07-02T12:42:48;20.93;57.59
70421;SHT31;57848;51.938;15.520;2023-07-02T12:45:15;21.31;56.43
70421;SHT31;57848;51.938;15.520;2023-07-02T12:47:41;21.79;54.28
70421;SHT31;57848;51.938;15.520;2023-07-02T12:50:08;22.60;53.45
70421;SHT31;57848;51.938;15.520;2023-07-02T12:52:33;23.94;47.90
70421;SHT31;57848;51.938;15.520;2023-07-02T12:54:59;25.57;44.74
70421;SHT31;57848;51.938;15.520;2023-07-02T12:57:25;26.61;42.81
70421;SHT31;57848;51.938;15.520;2023-07-02T12:59:53;27.41;41.19
70421;SHT31;57848;51.938;15.520;2023-07-02T13:02:18;28.49;39.47
70421;SHT31;57848;51.938;15.520;2023-07-02T13:04:43;29.34;38.21
70421;SHT31;57848;51.938;15.520;2023-07-02T13:07:09;29.37;36.83
70421;SHT31;57848;51.938;15.520;2023-07-02T13:09:34;29.24;37.14
70421;SHT31;57848;51.938;15.520;2023-07-02T13:11:59;29.55;36.96
70421;SHT31;57848;51.938;15.520;2023-07-02T13:14:25;29.61;36.81
70421;SHT31;57848;51.938;15.520;2023-07-02T13:16:50;30.43;35.71
70421;SHT31;57848;51.938;15.520;2023-07-02T13:19:16;30.87;35.41
70421;SHT31;57848;51.938;15.520;2023-07-02T13:21:41;31.00;35.24
70421;SHT31;57848;51.938;15.520;2023-07-02T13:24:07;31.18;34.60
70421;SHT31;57848;51.938;15.520;2023-07-02T13:26:32;31.24;35.54
70421;SHT31;57848;51.938;15.520;2023-07-02T13:28:57;31.25;35.42
70421;SHT31;57848;51.938;15.520;2023-07-02T13:31:23;30.39;36.34
70421;SHT31;57848;51.938;15.520;2023-07-02T13:33:49;29.82;37.01
70421;SHT31;57848;51.938;15.520;2023-07-02T13:36:15;30.47;37.18
70421;SHT31;57848;51.938;15.520;2023-07-02T13:38:40;30.52;36.54
70421;SHT31;57848;51.938;15.520;2023-07-02T13:41:06;29.68;37.88
70421;SHT31;57848;51.938;15.520;2023-07-02T13:43:31;29.40;38.52
70421;SHT31;57848;51.938;15.520;2023-07-02T13:45:56;30.46;37.97
70421;SHT31;57848;51.938;15.520;2023-07-02T13:48:22;29.49;38.72
70421;SHT31;57848;51.938;15.520;2023-07-02T13:50:48;29.00;38.99
70421;SHT31;57848;51.938;15.520;2023-07-02T13:53:13;28.59;39.75
70421;SHT31;57848;51.938;15.520;2023-07-02T13:55:38;27.82;40.79
70421;SHT31;57848;51.938;15.520;2023-07-02T13:58:04;27.69;41.88
70421;SHT31;57848;51.938;15.520;2023-07-02T14:00:29;27.65;41.85
70421;SHT31;57848;51.938;15.520;2023-07-02T14:02:55;28.58;41.24
70421;SHT31;57848;51.938;15.520;2023-07-02T14:05:21;29.33;39.46
70421;SHT31;57848;51.938;15.520;2023-07-02T14:07:46;29.47;39.68
70421;SHT31;57848;51.938;15.520;2023-07-02T14:10:12;29.70;38.80
70421;SHT31;57848;51.938;15.520;2023-07-02T14:12:39;28.59;40.02
70421;SHT31;57848;51.938;15.520;2023-07-02T14:15:05;28.35;41.12
70421;SHT31;57848;51.938;15.520;2023-07-02T14:17:31;27.82;41.56
70421;SHT31;57848;51.938;15.520;2023-07-02T14:19:56;27.21;42.82
70421;SHT31;57848;51.938;15.520;2023-07-02T14:22:21;26.74;43.28
70421;SHT31;57848;51.938;15.520;2023-07-02T14:24:47;26.36;44.60
70421;SHT31;57848;51.938;15.520;2023-07-02T14:27:12;25.78;45.01
70421;SHT31;57848;51.938;15.520;2023-07-02T14:29:38;25.23;46.51
70421;SHT31;57848;51.938;15.520;2023-07-02T14:32:03;24.83;47.62
70421;SHT31;57848;51.938;15.520;2023-07-02T14:34:29;24.32;48.34
70421;SHT31;57848;51.938;15.520;2023-07-02T14:36:55;23.93;49.75
70421;SHT31;57848;51.938;15.520;2023-07-02T14:39:21;23.51;50.36
70421;SHT31;57848;51.938;15.520;2023-07-02T14:41:48;23.69;50.73
70421;SHT31;57848;51.938;15.520;2023-07-02T14:44:13;23.77;50.16
70421;SHT31;57848;51.938;15.520;2023-07-02T14:46:39;23.85;50.24
70421;SHT31;57848;51.938;15.520;2023-07-02T14:49:04;23.97;51.08
70421;SHT31;57848;51.938;15.520;2023-07-02T14:51:29;23.74;51.10
70421;SHT31;57848;51.938;15.520;2023-07-02T14:53:56;23.91;50.09
70421;SHT31;57848;51.938;15.520;2023-07-02T14:56:21;23.84;49.92
70421;SHT31;57848;51.938;15.520;2023-07-02T14:58:47;23.98;49.25
70421;SHT31;57848;51.938;15.520;2023-07-02T15:01:13;24.01;49.29
70421;SHT31;57848;51.938;15.520;2023-07-02T15:03:39;24.07;49.62
70421;SHT31;57848;51.938;15.520;2023-07-02T15:06:11;23.85;49.61
70421;SHT31;57848;51.938;15.520;2023-07-02T15:08:37;24.07;49.24
70421;SHT31;57848;51.938;15.520;2023-07-02T15:11:03;24.35;49.23